Felts Mills, New York
Current Conditions -  °F | °C
As of 4:58 AM on Sunday 23 Nov 2014 (Local Time) from KGTB Reporting Station
Overcast Overcast  
Wind Chill: 37°   Ceiling: 600
Heat Index: 42°   Visibility: 10mi
Dew Point: 42°   Wind: 8mph
Humidity: 100%   Direction: 240°WSW
Pressure: 29.98"   Gusts: NA
Location:  44.02°N, 75.76°W
Report Text: KGTB 230958Z AUTO 24007KT 10SM OVC006 06/06 A2998 RMK AO2 RAE0857DZB0857E0902 SLP158 P0000 T00560056
Loading
Personal Weather Stations






























Interactive Weather Map New forecast layout! Learn more

10-Day Weather Forecast

Advertisements
Track Severe Weather on mobile